createdAt,value
2022-08-19T00:00:51.078Z,83.29
2022-08-19T00:01:53.199Z,83.25
2022-08-19T00:02:51.244Z,83.25
2022-08-19T00:03:51.064Z,83.19
2022-08-19T00:04:51.087Z,83.19
2022-08-19T00:05:51.013Z,82.89
2022-08-19T00:06:51.013Z,83.29
2022-08-19T00:07:51.000Z,83.09
2022-08-19T00:08:51.097Z,82.95
2022-08-19T00:09:50.972Z,83.09
2022-08-19T00:10:50.962Z,83.59
2022-08-19T00:11:50.953Z,82.89
2022-08-19T00:12:51.056Z,83.49
2022-08-19T00:13:50.951Z,83.69
2022-08-19T00:14:50.957Z,83.79
2022-08-19T00:15:50.907Z,83.59
2022-08-19T00:16:50.899Z,83.09
2022-08-19T00:17:50.920Z,83.19
2022-08-19T00:18:50.891Z,83.59
2022-08-19T00:19:50.883Z,83.79
2022-08-19T00:20:50.861Z,83.99
2022-08-19T00:21:50.850Z,84.19
2022-08-19T00:22:50.954Z,85.08
2022-08-19T00:23:50.822Z,84.99
2022-08-19T00:24:51.139Z,85.42
2022-08-19T00:25:50.924Z,85.32
2022-08-19T00:26:50.788Z,86.02
2022-08-19T00:27:50.778Z,86.06
2022-08-19T00:28:50.772Z,86.26
2022-08-19T00:29:52.315Z,86.76
2022-08-19T00:30:50.743Z,87.16
2022-08-19T00:31:50.851Z,87.35
2022-08-19T00:32:50.724Z,87.10
2022-08-19T00:33:50.713Z,87.00
2022-08-19T00:34:50.717Z,87.00
2022-08-19T00:35:56.275Z,86.56
2022-08-19T00:36:51.686Z,86.46
2022-08-19T00:37:50.662Z,86.06
2022-08-19T00:38:50.655Z,85.86
2022-08-19T00:39:50.712Z,86.46
2022-08-19T00:40:50.634Z,86.46
2022-08-19T00:41:50.625Z,86.76
2022-08-19T00:42:50.768Z,86.66
2022-08-19T00:43:50.605Z,86.46
2022-08-19T00:44:50.610Z,86.36
2022-08-19T00:45:50.612Z,86.96
2022-08-19T00:46:57.716Z,87.26
2022-08-19T00:47:51.551Z,87.05
2022-08-19T00:48:50.915Z,87.16
2022-08-19T00:49:50.537Z,87.95
2022-08-19T00:50:51.816Z,87.95
2022-08-19T00:51:50.513Z,88.20
2022-08-19T00:52:50.509Z,88.20
2022-08-19T00:53:50.489Z,89.09
2022-08-19T00:54:52.680Z,89.09
2022-08-19T00:55:51.320Z,88.89
2022-08-19T00:56:50.461Z,88.59
2022-08-19T00:57:50.443Z,88.40
2022-08-19T00:58:50.437Z,87.80
2022-08-19T01:00:00.880Z,87.90
2022-08-19T01:00:51.426Z,87.70
2022-08-19T01:01:50.723Z,87.46
2022-08-19T01:02:50.394Z,87.26
2022-08-19T01:03:57.599Z,86.56
2022-08-19T01:04:51.380Z,87.35
2022-08-19T01:05:50.723Z,88.45
2022-08-19T01:06:50.346Z,87.99
2022-08-19T01:07:50.334Z,89.09
2022-08-19T01:08:50.410Z,88.89
2022-08-19T01:09:50.332Z,88.29
2022-08-19T01:10:50.305Z,88.10
2022-08-19T01:11:50.299Z,88.40
2022-08-19T01:12:50.276Z,88.29
2022-08-19T01:13:50.461Z,89.19
2022-08-19T01:14:50.266Z,88.70
2022-08-19T01:15:50.299Z,89.64
2022-08-19T01:16:50.236Z,89.68
2022-08-19T01:17:50.223Z,90.58
2022-08-19T01:18:50.223Z,90.47
2022-08-19T01:19:50.223Z,91.07
2022-08-19T01:20:50.210Z,90.47
2022-08-19T01:21:50.178Z,90.77
2022-08-19T01:22:50.171Z,90.47
2022-08-19T01:23:50.160Z,91.37
2022-08-19T01:24:50.241Z,91.52
2022-08-19T01:25:50.159Z,91.37
2022-08-19T01:26:50.131Z,90.37
2022-08-19T01:27:50.118Z,89.78
2022-08-19T01:28:50.103Z,89.94
2022-08-19T01:29:50.097Z,89.34
2022-08-19T01:30:51.038Z,88.70
2022-08-19T01:31:50.070Z,88.15
2022-08-19T01:32:50.062Z,87.46
2022-08-19T01:33:50.046Z,87.85
2022-08-19T01:34:50.037Z,88.70
2022-08-19T01:35:50.074Z,89.39
2022-08-19T01:36:50.030Z,89.89
2022-08-19T01:37:50.001Z,90.99
2022-08-19T01:38:50.031Z,91.38
2022-08-19T01:39:50.138Z,90.59
2022-08-19T01:40:49.969Z,90.89
2022-08-19T01:41:50.260Z,90.99
2022-08-19T01:42:49.949Z,90.44
2022-08-19T01:44:09.950Z,91.04
2022-08-19T01:44:50.919Z,91.44
2022-08-19T01:45:49.914Z,90.74
2022-08-19T01:46:49.932Z,89.54
2022-08-19T01:47:55.533Z,88.79
2022-08-19T01:48:50.878Z,89.19
2022-08-19T01:49:49.870Z,88.85
2022-08-19T01:50:49.862Z,88.85
2022-08-19T01:51:49.864Z,89.05
2022-08-19T01:52:49.928Z,88.95
2022-08-19T01:53:50.819Z,88.25
2022-08-19T01:54:49.810Z,87.81
2022-08-19T01:55:49.797Z,87.71
2022-08-19T01:56:50.166Z,87.71
2022-08-19T01:57:49.774Z,87.81
2022-08-19T01:58:49.787Z,87.32
2022-08-19T01:59:49.777Z,86.72
2022-08-19T02:00:49.761Z,87.85
2022-08-19T02:01:49.774Z,88.15
2022-08-19T02:02:49.903Z,88.20
2022-08-19T02:03:49.736Z,88.70
2022-08-19T02:04:49.722Z,88.29
2022-08-19T02:05:49.710Z,88.29
2022-08-19T02:06:49.706Z,88.35
2022-08-19T02:07:49.663Z,88.06
2022-08-19T02:08:49.669Z,87.46
2022-08-19T02:09:49.709Z,87.05
2022-08-19T02:10:49.635Z,86.42
2022-08-19T02:11:49.619Z,86.02
2022-08-19T02:12:49.737Z,85.92
2022-08-19T02:13:49.823Z,85.92
2022-08-19T02:14:49.590Z,86.36
2022-08-19T02:15:49.910Z,86.42
2022-08-19T02:16:49.568Z,86.42
2022-08-19T02:17:49.552Z,86.86
2022-08-19T02:18:49.555Z,87.30
2022-08-19T02:19:49.526Z,88.24
2022-08-19T02:20:49.528Z,89.14
2022-08-19T02:21:49.525Z,89.03
2022-08-19T02:22:49.706Z,88.93
2022-08-19T02:23:49.522Z,88.93
2022-08-19T02:24:49.470Z,89.14
2022-08-19T02:25:49.458Z,89.03
2022-08-19T02:26:49.450Z,88.78
2022-08-19T02:27:49.439Z,89.58
2022-08-19T02:28:49.425Z,89.28
2022-08-19T02:29:49.435Z,88.88
2022-08-19T02:30:49.518Z,88.78
2022-08-19T02:31:49.387Z,88.88
2022-08-19T02:32:49.381Z,89.14
2022-08-19T02:33:49.374Z,88.88
2022-08-19T02:34:49.374Z,88.34
2022-08-19T02:35:49.410Z,88.13
2022-08-19T02:36:52.031Z,88.24
2022-08-19T02:37:49.327Z,88.54
2022-08-19T02:38:54.930Z,89.23
2022-08-19T02:39:50.396Z,88.68
2022-08-19T02:40:49.289Z,88.88
2022-08-19T02:41:49.278Z,89.07
2022-08-19T02:42:49.285Z,88.88
2022-08-19T02:44:29.033Z,89.07
2022-08-19T02:44:50.248Z,88.68
2022-08-19T02:45:49.275Z,89.98
2022-08-19T02:47:42.354Z,90.12
2022-08-19T02:48:42.327Z,90.12
2022-08-19T02:49:42.316Z,90.62
2022-08-19T02:50:51.991Z,90.81
2022-08-19T02:51:43.291Z,91.96
2022-08-19T02:52:42.280Z,91.56
2022-08-19T02:53:43.017Z,91.76
2022-08-19T02:54:42.262Z,91.56
2022-08-19T02:55:46.327Z,91.46
2022-08-19T02:56:42.235Z,91.46
2022-08-19T02:57:42.254Z,91.86
2022-08-19T02:58:42.215Z,91.56
2022-08-19T02:59:42.205Z,91.06
2022-08-19T03:00:42.246Z,91.26
2022-08-19T03:01:42.445Z,91.56
2022-08-19T03:02:42.193Z,91.76
2022-08-19T03:03:42.158Z,92.26
2022-08-19T03:04:42.350Z,91.96
2022-08-19T03:05:48.047Z,91.66
2022-08-19T03:06:43.124Z,91.36
2022-08-19T03:07:42.117Z,91.61
2022-08-19T03:08:42.307Z,91.16
2022-08-19T03:09:42.096Z,91.76
2022-08-19T03:10:43.020Z,91.56
2022-08-19T03:11:42.074Z,91.76
2022-08-19T03:12:42.079Z,91.56
2022-08-19T03:13:42.051Z,91.96
2022-08-19T03:14:42.036Z,90.72
2022-08-19T03:15:42.027Z,90.62
2022-08-19T03:16:42.032Z,90.32
2022-08-19T03:17:42.030Z,90.56
2022-08-19T03:18:41.992Z,91.26
2022-08-19T03:19:41.978Z,90.46
2022-08-19T03:20:41.983Z,91.66
2022-08-19T03:21:41.959Z,91.66
2022-08-19T03:22:41.975Z,91.76
2022-08-19T03:23:41.954Z,91.90
2022-08-19T03:24:41.929Z,91.50
2022-08-19T03:25:42.140Z,91.80
2022-08-19T03:26:41.932Z,92.10
2022-08-19T03:27:41.897Z,91.60
2022-08-19T03:28:41.882Z,91.56
2022-08-19T03:29:44.067Z,91.71
2022-08-19T03:30:41.860Z,91.46
2022-08-19T03:31:51.016Z,91.86
2022-08-19T03:32:45.514Z,92.00
2022-08-19T03:33:41.846Z,91.71
2022-08-19T03:34:41.818Z,91.71
2022-08-19T03:35:41.830Z,91.90
2022-08-19T03:36:41.833Z,91.76
2022-08-19T03:37:41.801Z,91.50
2022-08-19T03:38:41.773Z,91.90
2022-08-19T03:39:41.799Z,91.71
2022-08-19T03:40:41.879Z,92.00
2022-08-19T03:41:45.027Z,92.10
2022-08-19T03:42:49.095Z,91.40
2022-08-19T03:43:42.741Z,91.10
2022-08-19T03:44:41.711Z,90.86
2022-08-19T03:45:41.721Z,90.41
2022-08-19T03:46:42.365Z,90.61
2022-08-19T03:47:41.676Z,91.10
2022-08-19T03:48:41.681Z,91.20
2022-08-19T03:49:41.652Z,91.10
2022-08-19T03:50:41.642Z,91.90
2022-08-19T03:51:41.633Z,91.71
2022-08-19T03:52:45.433Z,91.64
2022-08-19T03:53:42.638Z,91.80
2022-08-19T03:54:41.595Z,91.64
2022-08-19T03:55:41.586Z,91.80
2022-08-19T03:56:41.572Z,91.10
2022-08-19T03:57:41.612Z,90.91
2022-08-19T03:58:41.567Z,90.70
2022-08-19T03:59:41.906Z,91.00
2022-08-19T04:00:41.534Z,90.91
2022-08-19T04:01:41.551Z,90.66
2022-08-19T04:02:41.511Z,90.61
2022-08-19T04:03:41.524Z,90.70
2022-08-19T04:04:41.486Z,90.80
2022-08-19T04:05:41.480Z,91.30
2022-08-19T04:06:41.468Z,92.00
2022-08-19T04:07:41.453Z,91.50
2022-08-19T04:08:42.078Z,91.20
2022-08-19T04:09:41.433Z,90.66
2022-08-19T04:10:41.429Z,90.66
2022-08-19T04:11:43.882Z,90.50
2022-08-19T04:12:41.406Z,91.20
2022-08-19T04:13:41.411Z,90.86
2022-08-19T04:14:41.410Z,90.91
2022-08-19T04:15:41.366Z,91.30
2022-08-19T04:16:41.354Z,91.71
2022-08-19T04:17:41.372Z,91.30
2022-08-19T04:18:41.350Z,91.50
2022-08-19T04:19:41.318Z,91.46
2022-08-19T04:20:41.309Z,91.10
2022-08-19T04:21:41.335Z,91.46
2022-08-19T04:22:41.327Z,90.66
2022-08-19T04:23:45.471Z,89.66
2022-08-19T04:24:42.262Z,89.66
2022-08-19T04:25:41.249Z,90.02
2022-08-19T04:26:41.242Z,89.52
2022-08-19T04:27:41.292Z,88.82
2022-08-19T04:28:41.238Z,89.02
2022-08-19T04:29:41.211Z,88.72
2022-08-19T04:30:41.203Z,88.72
2022-08-19T04:31:41.194Z,89.02
2022-08-19T04:32:41.180Z,89.22
2022-08-19T04:33:41.223Z,89.02
2022-08-19T04:35:03.026Z,89.32
2022-08-19T04:35:42.144Z,89.12
2022-08-19T04:36:41.133Z,89.52
2022-08-19T04:37:41.121Z,89.02
2022-08-19T04:38:41.117Z,89.12
2022-08-19T04:39:41.191Z,89.12
2022-08-19T04:40:41.391Z,88.38
2022-08-19T04:41:41.078Z,88.28
2022-08-19T04:42:41.071Z,88.58
2022-08-19T04:43:41.075Z,88.48
2022-08-19T04:44:46.033Z,87.98
2022-08-19T04:45:43.678Z,87.64
2022-08-19T04:46:51.545Z,87.34
2022-08-19T04:47:49.419Z,87.24
2022-08-19T04:48:44.913Z,86.90
2022-08-19T04:49:41.987Z,87.04
2022-08-19T04:50:40.979Z,86.54
2022-08-19T04:51:40.969Z,86.54
2022-08-19T04:52:40.957Z,86.44
2022-08-19T04:53:40.959Z,86.44
2022-08-19T04:54:40.953Z,86.34
2022-08-19T04:55:40.924Z,86.40
2022-08-19T04:56:40.940Z,86.10
2022-08-19T04:57:41.579Z,85.71
2022-08-19T04:58:40.925Z,86.15
2022-08-19T04:59:40.902Z,86.64
2022-08-19T05:00:41.088Z,86.44
2022-08-19T05:01:40.886Z,87.04
2022-08-19T05:02:40.840Z,86.54
2022-08-19T05:03:41.127Z,86.00
2022-08-19T05:04:40.834Z,85.27
2022-08-19T05:05:45.234Z,85.27
2022-08-19T05:06:40.796Z,84.77
2022-08-19T05:07:40.786Z,85.02
2022-08-19T05:08:40.776Z,84.13
2022-08-19T05:09:57.556Z,84.23
2022-08-19T05:10:41.765Z,84.92
2022-08-19T05:11:40.744Z,85.27
2022-08-19T05:12:40.729Z,85.27
2022-08-19T05:13:40.748Z,85.27
2022-08-19T05:14:40.706Z,84.47
2022-08-19T05:15:40.703Z,85.06
2022-08-19T05:16:40.829Z,85.06
2022-08-19T05:17:40.709Z,85.06
2022-08-19T05:18:40.683Z,84.67
2022-08-19T05:19:40.654Z,84.53
2022-08-19T05:20:40.885Z,84.43
2022-08-19T05:21:40.650Z,83.83
2022-08-19T05:22:40.615Z,83.79
2022-08-19T05:23:40.602Z,83.39
2022-08-19T05:24:56.410Z,83.29
2022-08-19T05:25:41.598Z,82.79
2022-08-19T05:26:40.590Z,82.79
2022-08-19T05:27:40.566Z,82.76
2022-08-19T05:28:40.562Z,82.35
2022-08-19T05:29:40.536Z,82.35
2022-08-19T05:30:47.140Z,82.50
2022-08-19T05:31:41.700Z,82.89
2022-08-19T05:32:40.515Z,83.49
2022-08-19T05:33:40.494Z,83.29
2022-08-19T05:34:40.489Z,82.89
2022-08-19T05:35:40.510Z,83.19
2022-08-19T05:36:40.458Z,83.00
2022-08-19T05:37:40.790Z,83.00
2022-08-19T05:38:40.436Z,83.39
2022-08-19T05:39:40.434Z,83.73
2022-08-19T05:40:40.413Z,84.33
2022-08-19T05:41:40.424Z,84.03
2022-08-19T05:42:40.390Z,83.63
2022-08-19T05:43:40.382Z,83.83
2022-08-19T05:44:40.373Z,83.79
2022-08-19T05:45:40.376Z,83.29
2022-08-19T05:46:40.346Z,83.93
2022-08-19T05:47:40.649Z,84.33
2022-08-19T05:48:40.366Z,84.29
2022-08-19T05:49:40.317Z,84.09
2022-08-19T05:50:40.320Z,83.49
2022-08-19T05:51:40.292Z,84.53
2022-08-19T05:52:45.913Z,84.13
2022-08-19T05:53:41.267Z,84.67
2022-08-19T05:54:40.302Z,84.83
2022-08-19T05:55:40.301Z,85.36
2022-08-19T05:56:40.235Z,85.66
2022-08-19T05:57:40.229Z,85.76
2022-08-19T05:58:40.213Z,85.86
2022-08-19T05:59:40.203Z,86.80
2022-08-19T06:00:40.197Z,86.50
2022-08-19T06:01:40.210Z,86.74
2022-08-19T06:02:40.184Z,86.74
2022-08-19T06:03:40.169Z,87.64
2022-08-19T06:04:40.169Z,87.54
2022-08-19T06:05:46.247Z,88.13
2022-08-19T06:06:41.126Z,88.58
2022-08-19T06:07:40.120Z,88.68
2022-08-19T06:08:40.104Z,88.48
2022-08-19T06:09:40.098Z,89.07
2022-08-19T06:10:40.120Z,88.88
2022-08-19T06:11:40.086Z,88.78
2022-08-19T06:12:40.067Z,89.07
2022-08-19T06:13:40.047Z,89.07
2022-08-19T06:14:41.873Z,89.14
2022-08-19T06:15:40.047Z,89.48
2022-08-19T06:16:40.101Z,88.34
2022-08-19T06:17:40.008Z,88.34
2022-08-19T06:18:40.003Z,88.04
2022-08-19T06:19:40.739Z,87.10
2022-08-19T06:20:55.104Z,86.80
2022-08-19T06:21:40.981Z,87.10
2022-08-19T06:22:39.952Z,87.30
2022-08-19T06:23:39.950Z,87.40
2022-08-19T06:24:39.937Z,87.40
2022-08-19T06:25:39.916Z,87.20
2022-08-19T06:26:40.085Z,87.30
2022-08-19T06:27:53.041Z,87.05
2022-08-19T06:28:40.882Z,87.26
2022-08-19T06:29:40.679Z,86.66
2022-08-19T06:30:39.879Z,86.46
2022-08-19T06:31:39.873Z,86.56
2022-08-19T06:32:42.778Z,86.26
2022-08-19T06:33:39.857Z,86.90
2022-08-19T06:34:39.829Z,87.00
2022-08-19T06:35:39.891Z,87.16
2022-08-19T06:36:39.817Z,86.76
2022-08-19T06:37:43.693Z,86.42
2022-08-19T06:38:39.774Z,85.32
2022-08-19T06:39:39.817Z,85.32
2022-08-19T06:40:39.819Z,85.28
2022-08-19T06:41:43.632Z,85.18
2022-08-19T06:42:43.285Z,85.38
2022-08-19T06:43:41.244Z,84.83
2022-08-19T06:44:42.796Z,85.02
2022-08-19T06:45:39.940Z,84.88
2022-08-19T06:46:39.705Z,85.18
2022-08-19T06:47:39.677Z,84.78
2022-08-19T06:48:39.662Z,84.39
2022-08-19T06:49:40.829Z,84.45
2022-08-19T06:50:39.852Z,83.95
2022-08-19T06:51:42.701Z,84.05
2022-08-19T06:52:39.621Z,83.31
2022-08-19T06:53:39.668Z,82.81
2022-08-19T06:54:56.095Z,82.95
2022-08-19T06:55:40.586Z,84.05
2022-08-19T06:56:39.768Z,83.75
2022-08-19T06:57:39.563Z,84.09
2022-08-19T06:58:39.550Z,84.48
2022-08-19T06:59:39.540Z,85.28
2022-08-19T07:00:39.641Z,84.78
2022-08-19T07:01:39.538Z,84.39
2022-08-19T07:02:40.060Z,84.39
2022-08-19T07:03:39.684Z,84.69
2022-08-19T07:04:42.077Z,85.18
2022-08-19T07:05:39.512Z,84.48
2022-08-19T07:06:43.287Z,85.28
2022-08-19T07:07:40.474Z,85.52
2022-08-19T07:09:39.431Z,85.42
2022-08-19T07:10:42.800Z,86.02
2022-08-19T07:11:39.661Z,85.92
2022-08-19T07:12:39.405Z,85.82
2022-08-19T07:13:39.386Z,85.38
2022-08-19T07:14:39.396Z,85.58
2022-08-19T07:15:39.899Z,84.88
2022-08-19T07:16:42.881Z,84.94
2022-08-19T07:17:39.701Z,84.64
2022-08-19T07:18:39.338Z,84.05
2022-08-19T07:19:39.319Z,85.20
2022-08-19T07:20:39.341Z,84.25
2022-08-19T07:21:39.305Z,84.84
2022-08-19T07:22:39.289Z,84.78
2022-08-19T07:23:39.280Z,84.15
2022-08-19T07:24:39.263Z,84.74
2022-08-19T07:25:40.274Z,84.74
2022-08-19T07:26:39.245Z,84.45
2022-08-19T07:27:39.589Z,84.25
2022-08-19T07:28:40.127Z,84.05
2022-08-19T07:29:40.210Z,84.74
2022-08-19T07:30:39.219Z,85.18
2022-08-19T07:31:39.356Z,85.18
2022-08-19T07:32:39.183Z,85.52
2022-08-19T07:33:39.164Z,85.92
2022-08-19T07:34:40.063Z,86.52
2022-08-19T07:35:39.158Z,86.08
2022-08-19T07:36:40.133Z,86.08
2022-08-19T07:37:39.120Z,85.28
2022-08-19T07:38:39.113Z,85.44
2022-08-19T07:39:39.148Z,85.24
2022-08-19T07:40:39.108Z,84.45
2022-08-19T07:41:39.078Z,84.74
2022-08-19T07:42:39.067Z,85.04
2022-08-19T07:43:39.060Z,84.94
2022-08-19T07:45:39.149Z,85.18
2022-08-19T07:46:39.030Z,85.08
2022-08-19T07:47:49.930Z,85.04
2022-08-19T07:48:40.005Z,84.94
2022-08-19T07:49:39.025Z,85.14
2022-08-19T07:50:38.976Z,84.64
2022-08-19T07:51:39.630Z,84.64
2022-08-19T07:52:38.954Z,84.80
2022-08-19T07:53:39.934Z,84.84
2022-08-19T07:54:38.947Z,84.25
2022-08-19T07:55:40.659Z,84.84
2022-08-19T07:56:38.909Z,84.94
2022-08-19T07:57:38.955Z,84.84
2022-08-19T07:58:38.890Z,84.45
2022-08-19T07:59:38.878Z,85.00
2022-08-19T08:00:38.888Z,85.14
2022-08-19T08:01:41.908Z,84.80
2022-08-19T08:02:38.854Z,84.60
2022-08-19T08:03:38.832Z,84.01
2022-08-19T08:04:38.832Z,83.97
2022-08-19T08:05:43.011Z,83.37
2022-08-19T08:06:38.872Z,83.07
2022-08-19T08:07:38.795Z,82.78
2022-08-19T08:08:44.181Z,82.93
2022-08-19T08:09:39.768Z,82.73
2022-08-19T08:10:38.761Z,82.40
2022-08-19T08:11:38.798Z,81.90
2022-08-19T08:12:38.738Z,81.40
2022-08-19T08:13:39.006Z,81.51
2022-08-19T08:14:38.712Z,81.80
2022-08-19T08:15:43.094Z,81.30
2022-08-19T08:16:39.661Z,81.40
2022-08-19T08:17:49.096Z,81.16
2022-08-19T08:18:39.682Z,81.07
2022-08-19T08:19:38.660Z,81.16
2022-08-19T08:20:38.650Z,81.27
2022-08-19T08:22:38.647Z,80.67
2022-08-19T08:23:39.752Z,80.77
2022-08-19T08:24:38.606Z,80.27
2022-08-19T08:25:38.599Z,80.63
2022-08-19T08:26:38.580Z,80.19
2022-08-19T08:27:39.591Z,79.80
2022-08-19T08:28:38.564Z,79.01
2022-08-19T08:29:38.555Z,78.38
2022-08-19T08:30:38.553Z,77.64
2022-08-19T08:31:38.527Z,76.26
2022-08-19T08:32:38.542Z,75.59
2022-08-19T08:33:38.542Z,74.57
2022-08-19T08:34:38.491Z,73.31
2022-08-19T08:35:38.485Z,71.13
2022-08-19T08:36:38.654Z,70.17
2022-08-19T08:37:38.481Z,69.29
2022-08-19T08:38:40.827Z,69.19
2022-08-19T08:39:38.467Z,68.56
2022-08-19T08:40:38.449Z,67.44
2022-08-19T08:41:38.416Z,67.87
2022-08-19T08:42:38.436Z,67.81
2022-08-19T08:43:38.410Z,69.52
2022-08-19T08:44:38.387Z,70.14
2022-08-19T08:45:42.415Z,70.18
2022-08-19T08:46:38.384Z,71.00
2022-08-19T08:47:46.662Z,71.66
2022-08-19T08:48:38.342Z,70.77
2022-08-19T08:49:38.324Z,70.57
2022-08-19T08:50:38.324Z,70.34
2022-08-19T08:51:38.408Z,69.52
2022-08-19T08:52:39.453Z,69.29
2022-08-19T08:53:41.396Z,68.99
2022-08-19T08:54:38.276Z,68.63
2022-08-19T08:55:38.322Z,68.50
2022-08-19T08:56:38.260Z,68.60
2022-08-19T08:57:40.998Z,68.50
2022-08-19T08:58:38.298Z,68.10
2022-08-19T08:59:38.221Z,68.33
2022-08-19T09:00:38.217Z,69.65
2022-08-19T09:01:38.233Z,70.18
2022-08-19T09:02:38.210Z,70.28
2022-08-19T09:03:38.178Z,70.08
2022-08-19T09:04:38.171Z,70.28
2022-08-19T09:05:42.133Z,69.95
2022-08-19T09:06:40.856Z,69.45
2022-08-19T09:07:39.803Z,70.18
2022-08-19T09:08:38.122Z,70.18
2022-08-19T09:09:38.117Z,69.98
2022-08-19T09:10:44.326Z,70.28
2022-08-19T09:11:42.555Z,69.95
2022-08-19T09:12:39.112Z,70.04
2022-08-19T09:13:38.082Z,69.55
2022-08-19T09:14:50.264Z,69.45
2022-08-19T09:15:39.044Z,69.12
2022-08-19T09:16:38.042Z,69.22
2022-08-19T09:17:38.028Z,69.16
2022-08-19T09:18:38.046Z,69.16
2022-08-19T09:19:38.000Z,69.49
2022-08-19T09:20:37.992Z,70.57
2022-08-19T09:21:38.979Z,70.21
2022-08-19T09:22:38.026Z,70.87
2022-08-19T09:23:37.953Z,70.37
2022-08-19T09:24:37.950Z,69.91
2022-08-19T09:25:37.935Z,69.19
2022-08-19T09:26:47.851Z,68.89
2022-08-19T09:27:42.932Z,68.46
2022-08-19T09:28:37.923Z,68.07
2022-08-19T09:29:37.897Z,67.44
2022-08-19T09:30:37.884Z,67.55
2022-08-19T09:31:37.871Z,66.82
2022-08-19T09:32:37.865Z,66.96
2022-08-19T09:33:37.883Z,67.15
2022-08-19T09:34:38.178Z,67.68
2022-08-19T09:35:43.907Z,68.10
2022-08-19T09:36:38.843Z,68.73
2022-08-19T09:37:37.823Z,69.55
2022-08-19T09:38:37.797Z,69.85
2022-08-19T09:39:38.822Z,69.35
2022-08-19T09:40:38.587Z,68.96
2022-08-19T09:41:37.758Z,68.73
2022-08-19T09:42:37.802Z,68.93
2022-08-19T09:43:44.361Z,69.65
2022-08-19T09:44:38.724Z,69.55
2022-08-19T09:45:37.743Z,69.35
2022-08-19T09:46:37.784Z,69.35
2022-08-19T09:47:37.692Z,68.96
2022-08-19T09:48:37.770Z,68.93
2022-08-19T09:49:37.668Z,68.93
2022-08-19T09:50:37.707Z,68.93
2022-08-19T09:51:37.652Z,69.16
2022-08-19T09:52:37.645Z,69.59
2022-08-19T09:53:37.664Z,70.37
2022-08-19T09:54:37.658Z,70.18
2022-08-19T09:55:37.600Z,69.78
2022-08-19T09:56:37.601Z,70.28
2022-08-19T09:57:37.623Z,70.18
2022-08-19T09:58:37.581Z,70.18
2022-08-19T09:59:37.781Z,70.08
2022-08-19T10:00:37.576Z,69.95
2022-08-19T10:01:37.601Z,69.16
2022-08-19T10:02:37.529Z,68.86
2022-08-19T10:03:37.694Z,68.83
2022-08-19T10:04:37.536Z,68.63
2022-08-19T10:05:37.503Z,68.86
2022-08-19T10:06:45.191Z,68.96
2022-08-19T10:07:38.549Z,69.65
2022-08-19T10:08:37.470Z,69.45
2022-08-19T10:09:37.475Z,70.18
2022-08-19T10:10:37.448Z,70.18
2022-08-19T10:11:40.607Z,70.31
2022-08-19T10:12:37.416Z,71.53
2022-08-19T10:13:37.407Z,71.30
2022-08-19T10:14:37.513Z,71.33
2022-08-19T10:15:47.380Z,71.92
2022-08-19T10:16:39.720Z,72.25
2022-08-19T10:17:37.362Z,72.25
2022-08-19T10:18:37.359Z,72.25
2022-08-19T10:19:37.359Z,72.35
2022-08-19T10:20:37.551Z,72.52
2022-08-19T10:21:37.323Z,72.02
2022-08-19T10:22:37.330Z,71.30
2022-08-19T10:23:37.298Z,71.26
2022-08-19T10:24:37.567Z,70.64
2022-08-19T10:25:38.352Z,69.62
2022-08-19T10:26:37.265Z,68.99
2022-08-19T10:27:37.269Z,68.20
2022-08-19T10:28:37.246Z,67.77
2022-08-19T10:29:37.231Z,66.53
2022-08-19T10:30:38.247Z,65.52
2022-08-19T10:32:00.082Z,65.58
2022-08-19T10:32:38.204Z,64.01
2022-08-19T10:33:42.602Z,63.32
2022-08-19T10:34:38.177Z,62.90
2022-08-19T10:35:56.297Z,60.78
2022-08-19T10:36:38.153Z,60.13
2022-08-19T10:37:56.766Z,58.83
2022-08-19T10:38:38.137Z,58.54
2022-08-19T10:39:43.322Z,58.02
2022-08-19T10:40:38.137Z,58.44
2022-08-19T10:41:37.121Z,59.77
2022-08-19T10:42:37.101Z,60.71
2022-08-19T10:43:37.121Z,61.23
2022-08-19T10:44:37.118Z,61.85
2022-08-19T10:45:37.056Z,63.55
2022-08-19T10:46:38.045Z,64.37
2022-08-19T10:47:37.038Z,65.28
2022-08-19T10:48:37.173Z,64.83
2022-08-19T10:49:37.018Z,66.30
2022-08-19T10:50:37.105Z,66.10
2022-08-19T10:51:36.998Z,65.35
2022-08-19T10:52:38.806Z,66.03
2022-08-19T10:53:36.983Z,66.82
2022-08-19T10:54:36.963Z,66.36
2022-08-19T10:55:36.970Z,66.49
2022-08-19T10:56:36.941Z,67.68
2022-08-19T10:57:59.282Z,67.29
2022-08-19T10:58:38.228Z,68.50
2022-08-19T10:59:36.932Z,69.32
2022-08-19T11:00:36.919Z,69.26
2022-08-19T11:01:36.987Z,69.95
2022-08-19T11:02:36.874Z,69.85
2022-08-19T11:03:36.863Z,70.08
2022-08-19T11:04:36.853Z,70.67
2022-08-19T11:05:40.399Z,70.97
2022-08-19T11:06:36.851Z,71.06
2022-08-19T11:07:36.825Z,71.00
2022-08-19T11:08:36.829Z,71.89
2022-08-19T11:09:36.802Z,71.53
2022-08-19T11:10:36.786Z,72.02
2022-08-19T11:11:39.415Z,72.42
2022-08-19T11:12:36.761Z,72.35
2022-08-19T11:13:36.757Z,72.35
2022-08-19T11:14:36.741Z,72.75
2022-08-19T11:15:36.748Z,73.77
2022-08-19T11:16:36.744Z,73.68
2022-08-19T11:17:36.713Z,73.58
2022-08-19T11:18:36.712Z,73.87
2022-08-19T11:19:36.697Z,73.77
2022-08-19T11:20:36.709Z,73.81
2022-08-19T11:21:36.678Z,74.01
2022-08-19T11:22:40.500Z,74.50
2022-08-19T11:23:37.642Z,74.99
2022-08-19T11:24:36.818Z,74.99
2022-08-19T11:25:36.643Z,75.49
2022-08-19T11:26:36.609Z,75.03
2022-08-19T11:27:36.607Z,75.92
2022-08-19T11:28:36.783Z,75.67
2022-08-19T11:29:36.602Z,75.82
2022-08-19T11:30:36.592Z,76.56
2022-08-19T11:31:36.561Z,76.06
2022-08-19T11:32:36.544Z,76.06
2022-08-19T11:33:36.568Z,76.16
2022-08-19T11:34:36.530Z,75.86
2022-08-19T11:35:36.538Z,76.12
2022-08-19T11:36:36.505Z,75.69
2022-08-19T11:37:36.496Z,73.97
2022-08-19T11:38:36.502Z,73.83
2022-08-19T11:39:36.789Z,72.95
2022-08-19T11:40:36.463Z,72.42
2022-08-19T11:41:36.456Z,72.61
2022-08-19T11:42:36.443Z,72.09
2022-08-19T11:43:37.664Z,72.09
2022-08-19T11:44:36.854Z,72.19
2022-08-19T11:45:36.468Z,72.42
2022-08-19T11:46:36.401Z,72.22
2022-08-19T11:47:36.443Z,72.42
2022-08-19T11:48:36.370Z,72.32
2022-08-19T11:49:36.356Z,71.92
2022-08-19T11:50:36.449Z,71.83
2022-08-19T11:51:36.353Z,71.39
2022-08-19T11:52:36.418Z,71.62
2022-08-19T11:53:36.321Z,71.14
2022-08-19T11:54:36.321Z,71.59
2022-08-19T11:55:36.347Z,71.10
2022-08-19T11:56:37.281Z,71.20
2022-08-19T11:57:36.295Z,70.11
2022-08-19T11:58:36.378Z,70.21
2022-08-19T11:59:36.260Z,70.80
2022-08-19T12:00:36.237Z,71.00
2022-08-19T12:01:36.246Z,70.90
2022-08-19T12:02:36.386Z,70.84
2022-08-19T12:03:36.283Z,71.83
2022-08-19T12:04:36.197Z,71.14
2022-08-19T12:05:36.183Z,71.43
2022-08-19T12:06:36.170Z,71.43
2022-08-19T12:07:36.179Z,71.53
2022-08-19T12:08:36.152Z,71.00
2022-08-19T12:09:36.141Z,70.08
2022-08-19T12:10:36.129Z,70.08
2022-08-19T12:11:36.142Z,69.78
2022-08-19T12:12:36.163Z,69.55
2022-08-19T12:13:36.097Z,67.71
2022-08-19T12:14:36.089Z,67.05
2022-08-19T12:15:37.147Z,65.02
2022-08-19T12:16:37.796Z,65.38
2022-08-19T12:17:36.087Z,64.20
2022-08-19T12:18:36.043Z,64.50
2022-08-19T12:19:36.252Z,63.71
2022-08-19T12:20:36.491Z,64.40
2022-08-19T12:21:36.015Z,64.23
2022-08-19T12:22:36.027Z,64.56
2022-08-19T12:23:35.984Z,65.87
2022-08-19T12:24:35.977Z,65.97
2022-08-19T12:25:35.970Z,66.99
2022-08-19T12:26:36.063Z,66.99
2022-08-19T12:27:40.892Z,66.92
2022-08-19T12:28:35.934Z,67.55
2022-08-19T12:29:35.966Z,67.74
2022-08-19T12:30:35.913Z,68.04
2022-08-19T12:31:35.906Z,68.27
2022-08-19T12:32:36.318Z,68.07
2022-08-19T12:33:35.886Z,68.27
2022-08-19T12:34:35.907Z,68.66
2022-08-19T12:35:35.887Z,68.57
2022-08-19T12:36:36.295Z,68.37
2022-08-19T12:37:35.838Z,68.17
2022-08-19T12:38:35.826Z,67.84
2022-08-19T12:39:35.833Z,67.74
2022-08-19T12:40:35.819Z,68.33
2022-08-19T12:41:35.807Z,68.27
2022-08-19T12:42:36.782Z,68.57
2022-08-19T12:43:35.771Z,69.19
2022-08-19T12:44:35.772Z,69.29
2022-08-19T12:45:35.799Z,69.38
2022-08-19T12:46:35.743Z,69.38
2022-08-19T12:47:35.739Z,69.38
2022-08-19T12:48:35.720Z,69.49
2022-08-19T12:49:54.353Z,69.19
2022-08-19T12:50:36.693Z,69.68
2022-08-19T12:51:35.685Z,68.76
2022-08-19T12:52:35.674Z,68.57
2022-08-19T12:53:39.140Z,68.17
2022-08-19T12:54:35.678Z,67.87
2022-08-19T12:55:35.656Z,67.84
2022-08-19T12:56:35.672Z,66.72